sensor_id;sensor_type;location;lat;lon;timestamp;P1;durP1;ratioP1;P2;durP2;ratioP2
9761;SDS011;4920;49.594;11.022;2022-07-10T00:02:07;5.97;;;4.70;;
9761;SDS011;4920;49.594;11.022;2022-07-10T00:04:35;6.70;;;5.07;;
9761;SDS011;4920;49.594;11.022;2022-07-10T00:07:04;5.40;;;4.90;;
9761;SDS011;4920;49.594;11.022;2022-07-10T00:09:32;5.60;;;4.60;;
9761;SDS011;4920;49.594;11.022;2022-07-10T00:12:02;5.40;;;4.90;;
9761;SDS011;4920;49.594;11.022;2022-07-10T00:14:31;5.13;;;4.63;;
9761;SDS011;4920;49.594;11.022;2022-07-10T00:17:00;5.10;;;4.67;;
9761;SDS011;4920;49.594;11.022;2022-07-10T00:19:28;5.43;;;4.83;;
9761;SDS011;4920;49.594;11.022;2022-07-10T00:21:56;5.40;;;4.90;;
9761;SDS011;4920;49.594;11.022;2022-07-10T00:24:24;5.00;;;4.60;;
9761;SDS011;4920;49.594;11.022;2022-07-10T00:26:53;5.80;;;5.20;;
9761;SDS011;4920;49.594;11.022;2022-07-10T00:29:23;5.97;;;5.47;;
9761;SDS011;4920;49.594;11.022;2022-07-10T00:31:51;5.83;;;5.20;;
9761;SDS011;4920;49.594;11.022;2022-07-10T00:34:19;5.37;;;4.87;;
9761;SDS011;4920;49.594;11.022;2022-07-10T00:36:47;6.40;;;5.37;;
9761;SDS011;4920;49.594;11.022;2022-07-10T00:39:16;5.53;;;5.10;;
9761;SDS011;4920;49.594;11.022;2022-07-10T00:41:44;5.80;;;5.27;;
9761;SDS011;4920;49.594;11.022;2022-07-10T00:44:12;7.13;;;5.50;;
9761;SDS011;4920;49.594;11.022;2022-07-10T00:46:42;6.37;;;5.40;;
9761;SDS011;4920;49.594;11.022;2022-07-10T00:49:10;7.60;;;5.17;;
9761;SDS011;4920;49.594;11.022;2022-07-10T00:51:38;6.50;;;5.50;;
9761;SDS011;4920;49.594;11.022;2022-07-10T00:54:07;5.90;;;5.30;;
9761;SDS011;4920;49.594;11.022;2022-07-10T00:56:35;5.47;;;5.00;;
9761;SDS011;4920;49.594;11.022;2022-07-10T00:59:03;6.27;;;5.67;;
9761;SDS011;4920;49.594;11.022;2022-07-10T01:01:32;5.70;;;5.20;;
9761;SDS011;4920;49.594;11.022;2022-07-10T01:04:02;5.80;;;5.30;;
9761;SDS011;4920;49.594;11.022;2022-07-10T01:06:31;6.87;;;5.70;;
9761;SDS011;4920;49.594;11.022;2022-07-10T01:09:00;5.87;;;5.27;;
9761;SDS011;4920;49.594;11.022;2022-07-10T01:11:28;6.70;;;5.30;;
9761;SDS011;4920;49.594;11.022;2022-07-10T01:13:56;6.00;;;5.40;;
9761;SDS011;4920;49.594;11.022;2022-07-10T01:16:25;6.03;;;5.43;;
9761;SDS011;4920;49.594;11.022;2022-07-10T01:18:53;5.90;;;5.40;;
9761;SDS011;4920;49.594;11.022;2022-07-10T01:21:26;6.00;;;5.50;;
9761;SDS011;4920;49.594;11.022;2022-07-10T01:23:57;6.23;;;5.20;;
9761;SDS011;4920;49.594;11.022;2022-07-10T01:26:26;5.40;;;4.90;;
9761;SDS011;4920;49.594;11.022;2022-07-10T01:28:55;6.93;;;5.00;;
9761;SDS011;4920;49.594;11.022;2022-07-10T01:31:24;5.50;;;5.00;;
9761;SDS011;4920;49.594;11.022;2022-07-10T01:33:53;5.47;;;4.97;;
9761;SDS011;4920;49.594;11.022;2022-07-10T01:36:22;5.87;;;4.60;;
9761;SDS011;4920;49.594;11.022;2022-07-10T01:38:53;4.73;;;4.27;;
9761;SDS011;4920;49.594;11.022;2022-07-10T01:41:22;4.70;;;4.23;;
9761;SDS011;4920;49.594;11.022;2022-07-10T01:43:50;6.10;;;4.40;;
9761;SDS011;4920;49.594;11.022;2022-07-10T01:46:19;7.57;;;4.50;;
9761;SDS011;4920;49.594;11.022;2022-07-10T01:48:48;4.93;;;4.47;;
9761;SDS011;4920;49.594;11.022;2022-07-10T01:51:16;4.63;;;4.17;;
9761;SDS011;4920;49.594;11.022;2022-07-10T01:53:44;5.33;;;3.97;;
9761;SDS011;4920;49.594;11.022;2022-07-10T01:56:14;8.07;;;4.00;;
9761;SDS011;4920;49.594;11.022;2022-07-10T01:58:43;5.63;;;3.73;;
9761;SDS011;4920;49.594;11.022;2022-07-10T02:01:11;4.87;;;3.80;;
9761;SDS011;4920;49.594;11.022;2022-07-10T02:03:40;5.83;;;3.50;;
9761;SDS011;4920;49.594;11.022;2022-07-10T02:06:25;5.57;;;3.63;;
9761;SDS011;4920;49.594;11.022;2022-07-10T02:08:53;4.47;;;3.30;;
9761;SDS011;4920;49.594;11.022;2022-07-10T02:11:23;4.90;;;3.40;;
9761;SDS011;4920;49.594;11.022;2022-07-10T02:13:51;6.23;;;3.57;;
9761;SDS011;4920;49.594;11.022;2022-07-10T02:16:20;5.40;;;3.10;;
9761;SDS011;4920;49.594;11.022;2022-07-10T02:18:48;3.67;;;2.80;;
9761;SDS011;4920;49.594;11.022;2022-07-10T02:21:16;4.83;;;2.80;;
9761;SDS011;4920;49.594;11.022;2022-07-10T02:23:44;5.73;;;3.00;;
9761;SDS011;4920;49.594;11.022;2022-07-10T02:26:13;4.50;;;3.00;;
9761;SDS011;4920;49.594;11.022;2022-07-10T02:28:42;6.27;;;3.03;;
9761;SDS011;4920;49.594;11.022;2022-07-10T02:31:10;4.73;;;2.80;;
9761;SDS011;4920;49.594;11.022;2022-07-10T02:33:39;7.77;;;3.10;;
9761;SDS011;4920;49.594;11.022;2022-07-10T02:36:07;4.57;;;2.90;;
9761;SDS011;4920;49.594;11.022;2022-07-10T02:38:35;6.13;;;3.37;;
9761;SDS011;4920;49.594;11.022;2022-07-10T02:41:04;3.07;;;2.47;;
9761;SDS011;4920;49.594;11.022;2022-07-10T02:43:32;4.73;;;2.90;;
9761;SDS011;4920;49.594;11.022;2022-07-10T02:46:02;11.87;;;2.97;;
9761;SDS011;4920;49.594;11.022;2022-07-10T02:48:30;5.20;;;2.60;;
9761;SDS011;4920;49.594;11.022;2022-07-10T02:50:59;5.07;;;2.40;;
9761;SDS011;4920;49.594;11.022;2022-07-10T02:53:27;5.13;;;2.53;;
9761;SDS011;4920;49.594;11.022;2022-07-10T02:55:55;4.43;;;2.80;;
9761;SDS011;4920;49.594;11.022;2022-07-10T02:58:23;5.03;;;2.80;;
9761;SDS011;4920;49.594;11.022;2022-07-10T03:00:52;4.57;;;2.40;;
9761;SDS011;4920;49.594;11.022;2022-07-10T03:03:21;4.50;;;2.90;;
9761;SDS011;4920;49.594;11.022;2022-07-10T03:05:50;5.40;;;2.50;;
9761;SDS011;4920;49.594;11.022;2022-07-10T03:08:18;4.83;;;2.50;;
9761;SDS011;4920;49.594;11.022;2022-07-10T03:10:46;4.30;;;2.40;;
9761;SDS011;4920;49.594;11.022;2022-07-10T03:13:14;7.17;;;2.70;;
9761;SDS011;4920;49.594;11.022;2022-07-10T03:15:43;7.63;;;2.60;;
9761;SDS011;4920;49.594;11.022;2022-07-10T03:18:11;5.00;;;2.80;;
9761;SDS011;4920;49.594;11.022;2022-07-10T03:20:41;5.43;;;2.43;;
9761;SDS011;4920;49.594;11.022;2022-07-10T03:23:09;5.60;;;2.70;;
9761;SDS011;4920;49.594;11.022;2022-07-10T03:25:37;5.33;;;2.67;;
9761;SDS011;4920;49.594;11.022;2022-07-10T03:28:05;8.13;;;2.50;;
9761;SDS011;4920;49.594;11.022;2022-07-10T03:30:34;4.77;;;2.40;;
9761;SDS011;4920;49.594;11.022;2022-07-10T03:33:02;5.70;;;2.60;;
9761;SDS011;4920;49.594;11.022;2022-07-10T03:35:30;5.00;;;2.40;;
9761;SDS011;4920;49.594;11.022;2022-07-10T03:38:00;4.63;;;2.67;;
9761;SDS011;4920;49.594;11.022;2022-07-10T03:40:28;8.47;;;3.00;;
9761;SDS011;4920;49.594;11.022;2022-07-10T03:42:57;3.83;;;2.60;;
9761;SDS011;4920;49.594;11.022;2022-07-10T03:45:25;6.23;;;3.13;;
9761;SDS011;4920;49.594;11.022;2022-07-10T03:47:53;7.17;;;3.03;;
9761;SDS011;4920;49.594;11.022;2022-07-10T03:50:22;3.93;;;2.70;;
9761;SDS011;4920;49.594;11.022;2022-07-10T03:52:50;5.37;;;2.83;;
9761;SDS011;4920;49.594;11.022;2022-07-10T03:55:20;6.37;;;2.70;;
9761;SDS011;4920;49.594;11.022;2022-07-10T03:57:48;5.47;;;2.63;;
9761;SDS011;4920;49.594;11.022;2022-07-10T04:00:21;4.47;;;2.70;;
9761;SDS011;4920;49.594;11.022;2022-07-10T04:02:54;6.30;;;2.60;;
9761;SDS011;4920;49.594;11.022;2022-07-10T04:05:24;7.60;;;2.60;;
9761;SDS011;4920;49.594;11.022;2022-07-10T04:07:52;4.70;;;2.00;;
9761;SDS011;4920;49.594;11.022;2022-07-10T04:10:25;7.20;;;2.20;;
9761;SDS011;4920;49.594;11.022;2022-07-10T04:12:54;7.50;;;2.33;;
9761;SDS011;4920;49.594;11.022;2022-07-10T04:15:22;4.63;;;2.10;;
9761;SDS011;4920;49.594;11.022;2022-07-10T04:17:51;6.07;;;2.20;;
9761;SDS011;4920;49.594;11.022;2022-07-10T04:20:20;3.73;;;1.80;;
9761;SDS011;4920;49.594;11.022;2022-07-10T04:22:49;4.13;;;1.90;;
9761;SDS011;4920;49.594;11.022;2022-07-10T04:25:17;3.30;;;1.70;;
9761;SDS011;4920;49.594;11.022;2022-07-10T04:27:47;3.10;;;1.70;;
9761;SDS011;4920;49.594;11.022;2022-07-10T04:30:15;5.47;;;1.63;;
9761;SDS011;4920;49.594;11.022;2022-07-10T04:32:44;7.20;;;1.80;;
9761;SDS011;4920;49.594;11.022;2022-07-10T04:35:12;3.10;;;1.47;;
9761;SDS011;4920;49.594;11.022;2022-07-10T04:37:40;4.32;;;1.27;;
9761;SDS011;4920;49.594;11.022;2022-07-10T04:40:09;5.05;;;1.70;;
9761;SDS011;4920;49.594;11.022;2022-07-10T04:42:38;4.97;;;1.50;;
9761;SDS011;4920;49.594;11.022;2022-07-10T04:45:08;3.20;;;1.45;;
9761;SDS011;4920;49.594;11.022;2022-07-10T04:47:37;3.95;;;1.40;;
9761;SDS011;4920;49.594;11.022;2022-07-10T04:50:06;3.03;;;1.15;;
9761;SDS011;4920;49.594;11.022;2022-07-10T04:52:35;5.78;;;1.20;;
9761;SDS011;4920;49.594;11.022;2022-07-10T04:55:04;6.18;;;1.42;;
9761;SDS011;4920;49.594;11.022;2022-07-10T04:57:33;3.40;;;1.30;;
9761;SDS011;4920;49.594;11.022;2022-07-10T05:00:01;2.83;;;1.30;;
9761;SDS011;4920;49.594;11.022;2022-07-10T05:02:32;5.32;;;1.52;;
9761;SDS011;4920;49.594;11.022;2022-07-10T05:05:01;4.07;;;1.20;;
9761;SDS011;4920;49.594;11.022;2022-07-10T05:07:29;3.83;;;1.27;;
9761;SDS011;4920;49.594;11.022;2022-07-10T05:09:57;3.45;;;1.30;;
9761;SDS011;4920;49.594;11.022;2022-07-10T05:12:25;4.80;;;1.48;;
9761;SDS011;4920;49.594;11.022;2022-07-10T05:14:54;4.47;;;1.20;;
9761;SDS011;4920;49.594;11.022;2022-07-10T05:17:22;2.95;;;1.25;;
9761;SDS011;4920;49.594;11.022;2022-07-10T05:19:52;4.15;;;1.52;;
9761;SDS011;4920;49.594;11.022;2022-07-10T05:22:22;4.13;;;1.35;;
9761;SDS011;4920;49.594;11.022;2022-07-10T05:24:50;4.03;;;1.33;;
9761;SDS011;4920;49.594;11.022;2022-07-10T05:27:19;2.72;;;1.20;;
9761;SDS011;4920;49.594;11.022;2022-07-10T05:29:47;4.47;;;1.20;;
9761;SDS011;4920;49.594;11.022;2022-07-10T05:32:16;5.03;;;1.30;;
9761;SDS011;4920;49.594;11.022;2022-07-10T05:34:44;2.10;;;1.13;;
9761;SDS011;4920;49.594;11.022;2022-07-10T05:37:14;3.63;;;1.30;;
9761;SDS011;4920;49.594;11.022;2022-07-10T05:39:43;2.83;;;1.00;;
9761;SDS011;4920;49.594;11.022;2022-07-10T05:42:11;3.28;;;1.10;;
9761;SDS011;4920;49.594;11.022;2022-07-10T05:44:40;3.10;;;1.00;;
9761;SDS011;4920;49.594;11.022;2022-07-10T05:47:08;3.08;;;1.00;;
9761;SDS011;4920;49.594;11.022;2022-07-10T05:49:36;2.30;;;0.90;;
9761;SDS011;4920;49.594;11.022;2022-07-10T05:52:05;2.35;;;0.80;;
9761;SDS011;4920;49.594;11.022;2022-07-10T05:54:35;2.28;;;1.10;;
9761;SDS011;4920;49.594;11.022;2022-07-10T05:57:04;2.88;;;1.10;;
9761;SDS011;4920;49.594;11.022;2022-07-10T05:59:33;3.00;;;0.98;;
9761;SDS011;4920;49.594;11.022;2022-07-10T06:02:02;3.13;;;1.25;;
9761;SDS011;4920;49.594;11.022;2022-07-10T06:04:30;3.15;;;1.20;;
9761;SDS011;4920;49.594;11.022;2022-07-10T06:06:59;3.97;;;1.30;;
9761;SDS011;4920;49.594;11.022;2022-07-10T06:09:28;4.50;;;1.13;;
9761;SDS011;4920;49.594;11.022;2022-07-10T06:11:58;4.50;;;1.25;;
9761;SDS011;4920;49.594;11.022;2022-07-10T06:14:27;5.40;;;1.13;;
9761;SDS011;4920;49.594;11.022;2022-07-10T06:16:55;3.08;;;1.30;;
9761;SDS011;4920;49.594;11.022;2022-07-10T06:19:23;4.75;;;1.30;;
9761;SDS011;4920;49.594;11.022;2022-07-10T06:21:52;2.50;;;1.10;;
9761;SDS011;4920;49.594;11.022;2022-07-10T06:24:34;5.25;;;1.25;;
9761;SDS011;4920;49.594;11.022;2022-07-10T06:27:04;3.53;;;1.27;;
9761;SDS011;4920;49.594;11.022;2022-07-10T06:29:33;3.92;;;1.30;;
9761;SDS011;4920;49.594;11.022;2022-07-10T06:32:02;4.80;;;1.50;;
9761;SDS011;4920;49.594;11.022;2022-07-10T06:34:31;4.03;;;1.50;;
9761;SDS011;4920;49.594;11.022;2022-07-10T06:36:59;3.08;;;1.10;;
9761;SDS011;4920;49.594;11.022;2022-07-10T06:39:28;2.85;;;1.20;;
9761;SDS011;4920;49.594;11.022;2022-07-10T06:44:38;5.55;;;1.20;;
9761;SDS011;4920;49.594;11.022;2022-07-10T06:47:06;3.53;;;1.20;;
9761;SDS011;4920;49.594;11.022;2022-07-10T06:49:52;4.85;;;1.15;;
9761;SDS011;4920;49.594;11.022;2022-07-10T06:52:21;4.00;;;1.05;;
9761;SDS011;4920;49.594;11.022;2022-07-10T06:54:50;3.10;;;1.30;;
9761;SDS011;4920;49.594;11.022;2022-07-10T06:57:20;3.90;;;0.90;;
9761;SDS011;4920;49.594;11.022;2022-07-10T06:59:50;3.40;;;1.10;;
9761;SDS011;4920;49.594;11.022;2022-07-10T07:02:19;3.53;;;1.00;;
9761;SDS011;4920;49.594;11.022;2022-07-10T07:04:47;3.00;;;0.93;;
9761;SDS011;4920;49.594;11.022;2022-07-10T07:07:16;2.28;;;0.90;;
9761;SDS011;4920;49.594;11.022;2022-07-10T07:09:51;3.47;;;1.02;;
9761;SDS011;4920;49.594;11.022;2022-07-10T07:12:19;1.48;;;0.90;;
9761;SDS011;4920;49.594;11.022;2022-07-10T07:14:47;3.45;;;0.80;;
9761;SDS011;4920;49.594;11.022;2022-07-10T07:17:17;2.17;;;0.90;;
9761;SDS011;4920;49.594;11.022;2022-07-10T07:19:51;2.13;;;0.93;;
9761;SDS011;4920;49.594;11.022;2022-07-10T07:22:37;3.00;;;0.90;;
9761;SDS011;4920;49.594;11.022;2022-07-10T07:25:23;1.58;;;0.80;;
9761;SDS011;4920;49.594;11.022;2022-07-10T07:27:52;1.42;;;0.70;;
9761;SDS011;4920;49.594;11.022;2022-07-10T07:30:21;2.95;;;0.80;;
9761;SDS011;4920;49.594;11.022;2022-07-10T07:32:50;2.50;;;0.80;;
9761;SDS011;4920;49.594;11.022;2022-07-10T07:35:18;2.58;;;0.70;;
9761;SDS011;4920;49.594;11.022;2022-07-10T07:37:47;2.33;;;0.77;;
9761;SDS011;4920;49.594;11.022;2022-07-10T07:40:18;2.38;;;0.85;;
9761;SDS011;4920;49.594;11.022;2022-07-10T07:42:49;2.45;;;0.95;;
9761;SDS011;4920;49.594;11.022;2022-07-10T07:45:17;3.30;;;0.95;;
9761;SDS011;4920;49.594;11.022;2022-07-10T07:47:48;2.92;;;0.80;;
9761;SDS011;4920;49.594;11.022;2022-07-10T07:50:18;2.17;;;1.00;;
9761;SDS011;4920;49.594;11.022;2022-07-10T07:52:48;2.85;;;0.70;;
9761;SDS011;4920;49.594;11.022;2022-07-10T07:55:17;2.00;;;0.85;;
9761;SDS011;4920;49.594;11.022;2022-07-10T07:57:47;2.25;;;0.73;;
9761;SDS011;4920;49.594;11.022;2022-07-10T08:00:18;1.67;;;0.63;;
9761;SDS011;4920;49.594;11.022;2022-07-10T08:02:50;2.03;;;0.73;;
9761;SDS011;4920;49.594;11.022;2022-07-10T08:05:19;2.28;;;0.88;;
9761;SDS011;4920;49.594;11.022;2022-07-10T08:07:50;2.42;;;0.70;;
9761;SDS011;4920;49.594;11.022;2022-07-10T08:10:20;1.63;;;0.60;;
9761;SDS011;4920;49.594;11.022;2022-07-10T08:12:50;1.55;;;0.80;;
9761;SDS011;4920;49.594;11.022;2022-07-10T08:15:19;3.97;;;1.10;;
9761;SDS011;4920;49.594;11.022;2022-07-10T08:17:51;3.20;;;0.85;;
9761;SDS011;4920;49.594;11.022;2022-07-10T08:20:22;5.10;;;0.90;;
9761;SDS011;4920;49.594;11.022;2022-07-10T08:22:52;3.97;;;0.80;;
9761;SDS011;4920;49.594;11.022;2022-07-10T08:25:25;1.67;;;0.75;;
9761;SDS011;4920;49.594;11.022;2022-07-10T08:27:59;3.22;;;0.70;;
9761;SDS011;4920;49.594;11.022;2022-07-10T08:30:28;1.40;;;0.80;;
9761;SDS011;4920;49.594;11.022;2022-07-10T08:32:58;2.25;;;0.65;;
9761;SDS011;4920;49.594;11.022;2022-07-10T08:35:26;2.58;;;0.80;;
9761;SDS011;4920;49.594;11.022;2022-07-10T08:37:55;4.20;;;1.05;;
9761;SDS011;4920;49.594;11.022;2022-07-10T08:40:23;1.65;;;0.70;;
9761;SDS011;4920;49.594;11.022;2022-07-10T08:42:51;1.67;;;0.60;;
9761;SDS011;4920;49.594;11.022;2022-07-10T08:45:20;2.58;;;0.60;;
9761;SDS011;4920;49.594;11.022;2022-07-10T08:47:49;2.45;;;0.70;;
9761;SDS011;4920;49.594;11.022;2022-07-10T08:50:21;1.40;;;0.60;;
9761;SDS011;4920;49.594;11.022;2022-07-10T08:52:52;0.88;;;0.60;;
9761;SDS011;4920;49.594;11.022;2022-07-10T08:55:25;2.42;;;0.60;;
9761;SDS011;4920;49.594;11.022;2022-07-10T08:57:54;0.88;;;0.55;;
9761;SDS011;4920;49.594;11.022;2022-07-10T09:00:23;0.75;;;0.63;;
9761;SDS011;4920;49.594;11.022;2022-07-10T09:02:53;1.00;;;0.50;;
9761;SDS011;4920;49.594;11.022;2022-07-10T09:05:23;0.75;;;0.63;;
9761;SDS011;4920;49.594;11.022;2022-07-10T09:07:52;4.25;;;0.70;;
9761;SDS011;4920;49.594;11.022;2022-07-10T09:10:21;2.30;;;0.70;;
9761;SDS011;4920;49.594;11.022;2022-07-10T09:12:53;0.75;;;0.65;;
9761;SDS011;4920;49.594;11.022;2022-07-10T09:15:23;1.63;;;0.70;;
9761;SDS011;4920;49.594;11.022;2022-07-10T09:17:53;0.88;;;0.60;;
9761;SDS011;4920;49.594;11.022;2022-07-10T09:20:28;1.00;;;0.75;;
9761;SDS011;4920;49.594;11.022;2022-07-10T09:22:58;2.08;;;0.80;;
9761;SDS011;4920;49.594;11.022;2022-07-10T09:25:36;1.35;;;0.60;;
9761;SDS011;4920;49.594;11.022;2022-07-10T09:28:04;1.30;;;0.73;;
9761;SDS011;4920;49.594;11.022;2022-07-10T09:30:34;1.77;;;0.70;;
9761;SDS011;4920;49.594;11.022;2022-07-10T09:33:16;3.72;;;0.80;;
9761;SDS011;4920;49.594;11.022;2022-07-10T09:36:00;2.20;;;0.70;;
9761;SDS011;4920;49.594;11.022;2022-07-10T09:38:48;2.47;;;0.60;;
9761;SDS011;4920;49.594;11.022;2022-07-10T09:41:21;1.83;;;0.60;;
9761;SDS011;4920;49.594;11.022;2022-07-10T09:43:51;1.38;;;0.80;;
9761;SDS011;4920;49.594;11.022;2022-07-10T09:46:23;2.22;;;0.63;;
9761;SDS011;4920;49.594;11.022;2022-07-10T09:49:06;2.03;;;0.90;;
9761;SDS011;4920;49.594;11.022;2022-07-10T09:51:38;2.42;;;0.90;;
9761;SDS011;4920;49.594;11.022;2022-07-10T09:54:15;1.65;;;0.70;;
9761;SDS011;4920;49.594;11.022;2022-07-10T09:56:45;2.55;;;1.17;;
9761;SDS011;4920;49.594;11.022;2022-07-10T09:59:14;2.33;;;0.90;;
9761;SDS011;4920;49.594;11.022;2022-07-10T10:01:44;2.17;;;1.10;;
9761;SDS011;4920;49.594;11.022;2022-07-10T10:04:15;2.95;;;0.80;;
9761;SDS011;4920;49.594;11.022;2022-07-10T10:06:49;2.40;;;0.90;;
9761;SDS011;4920;49.594;11.022;2022-07-10T10:09:21;2.88;;;0.93;;
9761;SDS011;4920;49.594;11.022;2022-07-10T10:11:54;2.67;;;0.80;;
9761;SDS011;4920;49.594;11.022;2022-07-10T10:14:25;2.65;;;0.90;;
9761;SDS011;4920;49.594;11.022;2022-07-10T10:16:55;2.70;;;0.95;;
9761;SDS011;4920;49.594;11.022;2022-07-10T10:19:24;2.85;;;0.80;;
9761;SDS011;4920;49.594;11.022;2022-07-10T10:22:13;4.05;;;0.77;;
9761;SDS011;4920;49.594;11.022;2022-07-10T10:24:42;3.25;;;1.20;;
9761;SDS011;4920;49.594;11.022;2022-07-10T10:27:12;2.78;;;1.08;;
9761;SDS011;4920;49.594;11.022;2022-07-10T10:29:42;1.70;;;0.80;;
9761;SDS011;4920;49.594;11.022;2022-07-10T10:32:12;3.47;;;1.00;;
9761;SDS011;4920;49.594;11.022;2022-07-10T10:34:41;2.05;;;0.98;;
9761;SDS011;4920;49.594;11.022;2022-07-10T10:40:03;4.13;;;1.08;;
9761;SDS011;4920;49.594;11.022;2022-07-10T10:42:33;1.50;;;0.90;;
9761;SDS011;4920;49.594;11.022;2022-07-10T10:45:21;5.03;;;1.98;;
9761;SDS011;4920;49.594;11.022;2022-07-10T10:47:59;2.67;;;1.08;;
9761;SDS011;4920;49.594;11.022;2022-07-10T10:50:49;2.60;;;1.00;;
9761;SDS011;4920;49.594;11.022;2022-07-10T10:53:21;2.78;;;1.50;;
9761;SDS011;4920;49.594;11.022;2022-07-10T10:58:52;4.22;;;0.93;;
9761;SDS011;4920;49.594;11.022;2022-07-10T11:01:27;2.97;;;0.80;;
9761;SDS011;4920;49.594;11.022;2022-07-10T11:04:14;3.35;;;1.05;;
9761;SDS011;4920;49.594;11.022;2022-07-10T11:06:48;2.35;;;0.85;;
9761;SDS011;4920;49.594;11.022;2022-07-10T11:09:28;3.90;;;1.10;;
9761;SDS011;4920;49.594;11.022;2022-07-10T11:12:01;2.47;;;1.00;;
9761;SDS011;4920;49.594;11.022;2022-07-10T11:14:33;2.55;;;0.88;;
9761;SDS011;4920;49.594;11.022;2022-07-10T11:17:04;1.90;;;0.80;;
9761;SDS011;4920;49.594;11.022;2022-07-10T11:19:33;3.00;;;0.90;;
9761;SDS011;4920;49.594;11.022;2022-07-10T11:22:16;4.18;;;0.93;;
9761;SDS011;4920;49.594;11.022;2022-07-10T11:25:11;2.53;;;0.90;;
9761;SDS011;4920;49.594;11.022;2022-07-10T11:28:08;1.15;;;0.90;;
9761;SDS011;4920;49.594;11.022;2022-07-10T11:30:45;1.80;;;0.75;;
9761;SDS011;4920;49.594;11.022;2022-07-10T11:33:15;2.35;;;1.00;;
9761;SDS011;4920;49.594;11.022;2022-07-10T11:35:45;3.00;;;0.77;;
9761;SDS011;4920;49.594;11.022;2022-07-10T11:38:18;2.72;;;0.88;;
9761;SDS011;4920;49.594;11.022;2022-07-10T11:40:49;1.63;;;0.60;;
9761;SDS011;4920;49.594;11.022;2022-07-10T11:43:19;2.15;;;0.80;;
9761;SDS011;4920;49.594;11.022;2022-07-10T11:45:50;1.55;;;0.75;;
9761;SDS011;4920;49.594;11.022;2022-07-10T11:48:21;2.03;;;1.02;;
9761;SDS011;4920;49.594;11.022;2022-07-10T11:50:50;2.00;;;0.77;;
9761;SDS011;4920;49.594;11.022;2022-07-10T11:53:22;3.47;;;0.82;;
9761;SDS011;4920;49.594;11.022;2022-07-10T11:55:52;1.73;;;0.70;;
9761;SDS011;4920;49.594;11.022;2022-07-10T11:58:21;1.42;;;0.70;;
9761;SDS011;4920;49.594;11.022;2022-07-10T12:00:59;2.50;;;0.80;;
9761;SDS011;4920;49.594;11.022;2022-07-10T12:03:31;2.00;;;0.80;;
9761;SDS011;4920;49.594;11.022;2022-07-10T12:06:03;1.88;;;0.90;;
9761;SDS011;4920;49.594;11.022;2022-07-10T12:08:43;1.20;;;0.80;;
9761;SDS011;4920;49.594;11.022;2022-07-10T12:11:14;3.13;;;0.80;;
9761;SDS011;4920;49.594;11.022;2022-07-10T12:13:46;2.35;;;0.80;;
9761;SDS011;4920;49.594;11.022;2022-07-10T12:16:17;2.03;;;0.63;;
9761;SDS011;4920;49.594;11.022;2022-07-10T12:18:46;2.25;;;0.70;;
9761;SDS011;4920;49.594;11.022;2022-07-10T12:21:15;1.70;;;0.80;;
9761;SDS011;4920;49.594;11.022;2022-07-10T12:23:44;1.63;;;0.63;;
9761;SDS011;4920;49.594;11.022;2022-07-10T12:26:16;2.22;;;0.75;;
9761;SDS011;4920;49.594;11.022;2022-07-10T12:28:52;1.75;;;0.73;;
9761;SDS011;4920;49.594;11.022;2022-07-10T12:34:32;1.23;;;0.70;;
9761;SDS011;4920;49.594;11.022;2022-07-10T12:43:04;1.58;;;0.77;;
9761;SDS011;4920;49.594;11.022;2022-07-10T12:45:33;2.10;;;0.85;;
9761;SDS011;4920;49.594;11.022;2022-07-10T12:48:02;2.55;;;0.70;;
9761;SDS011;4920;49.594;11.022;2022-07-10T12:50:33;2.15;;;0.90;;
9761;SDS011;4920;49.594;11.022;2022-07-10T12:53:07;2.03;;;0.80;;
9761;SDS011;4920;49.594;11.022;2022-07-10T12:55:37;1.20;;;0.70;;
9761;SDS011;4920;49.594;11.022;2022-07-10T12:58:09;1.95;;;0.80;;
9761;SDS011;4920;49.594;11.022;2022-07-10T13:00:43;1.50;;;0.70;;
9761;SDS011;4920;49.594;11.022;2022-07-10T13:03:17;1.63;;;0.73;;
9761;SDS011;4920;49.594;11.022;2022-07-10T13:05:46;2.33;;;0.85;;
9761;SDS011;4920;49.594;11.022;2022-07-10T13:08:15;1.27;;;0.80;;
9761;SDS011;4920;49.594;11.022;2022-07-10T13:10:48;1.58;;;0.85;;
9761;SDS011;4920;49.594;11.022;2022-07-10T13:13:19;1.23;;;0.90;;
9761;SDS011;4920;49.594;11.022;2022-07-10T13:15:48;1.88;;;0.90;;
9761;SDS011;4920;49.594;11.022;2022-07-10T13:18:20;3.17;;;0.80;;
9761;SDS011;4920;49.594;11.022;2022-07-10T13:20:50;1.52;;;0.80;;
9761;SDS011;4920;49.594;11.022;2022-07-10T13:23:26;2.05;;;0.90;;
9761;SDS011;4920;49.594;11.022;2022-07-10T13:25:55;1.42;;;0.60;;
9761;SDS011;4920;49.594;11.022;2022-07-10T13:28:27;1.38;;;0.60;;
9761;SDS011;4920;49.594;11.022;2022-07-10T13:30:56;3.45;;;0.70;;
9761;SDS011;4920;49.594;11.022;2022-07-10T13:33:24;2.38;;;0.75;;
9761;SDS011;4920;49.594;11.022;2022-07-10T13:35:54;1.13;;;0.70;;
9761;SDS011;4920;49.594;11.022;2022-07-10T13:38:23;2.00;;;0.80;;
9761;SDS011;4920;49.594;11.022;2022-07-10T13:40:52;1.67;;;0.70;;
9761;SDS011;4920;49.594;11.022;2022-07-10T13:43:21;1.52;;;0.80;;
9761;SDS011;4920;49.594;11.022;2022-07-10T13:45:57;1.23;;;0.90;;
9761;SDS011;4920;49.594;11.022;2022-07-10T13:48:27;2.85;;;0.90;;
9761;SDS011;4920;49.594;11.022;2022-07-10T13:50:57;2.28;;;0.95;;
9761;SDS011;4920;49.594;11.022;2022-07-10T13:53:25;2.35;;;0.80;;
9761;SDS011;4920;49.594;11.022;2022-07-10T13:55:54;1.38;;;0.80;;
9761;SDS011;4920;49.594;11.022;2022-07-10T13:58:26;3.53;;;0.85;;
9761;SDS011;4920;49.594;11.022;2022-07-10T14:00:54;3.08;;;1.08;;
9761;SDS011;4920;49.594;11.022;2022-07-10T14:03:27;2.22;;;1.20;;
9761;SDS011;4920;49.594;11.022;2022-07-10T14:05:55;2.85;;;0.73;;
9761;SDS011;4920;49.594;11.022;2022-07-10T14:08:25;2.72;;;0.80;;
9761;SDS011;4920;49.594;11.022;2022-07-10T14:10:54;1.88;;;1.00;;
9761;SDS011;4920;49.594;11.022;2022-07-10T14:13:22;3.58;;;0.93;;
9761;SDS011;4920;49.594;11.022;2022-07-10T14:15:51;2.50;;;0.70;;
9761;SDS011;4920;49.594;11.022;2022-07-10T14:18:20;2.67;;;1.00;;
9761;SDS011;4920;49.594;11.022;2022-07-10T14:21:06;1.30;;;0.80;;
9761;SDS011;4920;49.594;11.022;2022-07-10T14:23:35;2.22;;;1.13;;
9761;SDS011;4920;49.594;11.022;2022-07-10T14:26:08;2.47;;;0.82;;
9761;SDS011;4920;49.594;11.022;2022-07-10T14:28:36;3.33;;;0.88;;
9761;SDS011;4920;49.594;11.022;2022-07-10T14:31:05;3.55;;;0.98;;
9761;SDS011;4920;49.594;11.022;2022-07-10T14:33:35;2.08;;;0.80;;
9761;SDS011;4920;49.594;11.022;2022-07-10T14:36:04;2.17;;;1.10;;
9761;SDS011;4920;49.594;11.022;2022-07-10T14:38:34;2.42;;;0.82;;
9761;SDS011;4920;49.594;11.022;2022-07-10T14:41:03;3.45;;;0.95;;
9761;SDS011;4920;49.594;11.022;2022-07-10T14:43:32;3.20;;;1.02;;
9761;SDS011;4920;49.594;11.022;2022-07-10T14:46:01;2.65;;;1.13;;
9761;SDS011;4920;49.594;11.022;2022-07-10T14:48:30;2.00;;;1.30;;
9761;SDS011;4920;49.594;11.022;2022-07-10T14:51:00;2.40;;;1.05;;
9761;SDS011;4920;49.594;11.022;2022-07-10T14:53:30;2.00;;;0.90;;
9761;SDS011;4920;49.594;11.022;2022-07-10T14:56:01;3.92;;;1.05;;
9761;SDS011;4920;49.594;11.022;2022-07-10T14:58:30;3.47;;;1.30;;
9761;SDS011;4920;49.594;11.022;2022-07-10T15:01:15;1.02;;;0.80;;
9761;SDS011;4920;49.594;11.022;2022-07-10T15:03:44;2.72;;;0.90;;
9761;SDS011;4920;49.594;11.022;2022-07-10T15:06:13;3.75;;;1.10;;
9761;SDS011;4920;49.594;11.022;2022-07-10T15:08:42;3.33;;;0.90;;
9761;SDS011;4920;49.594;11.022;2022-07-10T15:11:11;4.10;;;1.00;;
9761;SDS011;4920;49.594;11.022;2022-07-10T15:13:39;1.90;;;1.00;;
9761;SDS011;4920;49.594;11.022;2022-07-10T15:16:09;1.52;;;1.00;;
9761;SDS011;4920;49.594;11.022;2022-07-10T15:18:37;2.90;;;0.90;;
9761;SDS011;4920;49.594;11.022;2022-07-10T15:21:07;2.97;;;0.93;;
9761;SDS011;4920;49.594;11.022;2022-07-10T15:23:36;3.72;;;1.00;;
9761;SDS011;4920;49.594;11.022;2022-07-10T15:26:06;3.13;;;0.90;;
9761;SDS011;4920;49.594;11.022;2022-07-10T15:28:35;2.53;;;0.95;;
9761;SDS011;4920;49.594;11.022;2022-07-10T15:31:04;1.23;;;0.80;;
9761;SDS011;4920;49.594;11.022;2022-07-10T15:33:34;3.08;;;0.95;;
9761;SDS011;4920;49.594;11.022;2022-07-10T15:36:03;1.45;;;1.00;;
9761;SDS011;4920;49.594;11.022;2022-07-10T15:38:32;1.95;;;1.00;;